createdAt,value
2023-03-15T03:58:56.076Z,1005.57
2023-03-15T03:59:56.058Z,1005.60
2023-03-15T04:00:56.008Z,1005.61
2023-03-15T04:01:55.992Z,1005.59
2023-03-15T04:02:56.079Z,1005.64
2023-03-15T04:03:55.992Z,1005.64
2023-03-15T04:04:56.069Z,1005.64
2023-03-15T04:05:55.968Z,1005.71
2023-03-15T04:06:55.957Z,1005.73
2023-03-15T04:07:55.981Z,1005.73
2023-03-15T04:08:55.961Z,1005.76
2023-03-15T04:09:55.964Z,1005.70
2023-03-15T04:10:55.942Z,1005.76
2023-03-15T04:11:55.935Z,1005.75
2023-03-15T04:12:55.940Z,1005.75
2023-03-15T04:13:55.945Z,1005.73
2023-03-15T04:14:55.936Z,1005.79
2023-03-15T04:15:55.951Z,1005.82
2023-03-15T04:16:55.898Z,1005.83
2023-03-15T04:17:56.067Z,1005.84
2023-03-15T04:18:55.914Z,1005.88
2023-03-15T04:19:55.901Z,1005.89
2023-03-15T04:20:55.884Z,1005.85
2023-03-15T04:21:55.894Z,1005.88
2023-03-15T04:22:55.865Z,1005.86
2023-03-15T04:23:55.878Z,1005.90
2023-03-15T04:24:55.853Z,1005.91
2023-03-15T04:25:55.865Z,1005.95
2023-03-15T04:26:55.860Z,1005.90
2023-03-15T04:27:55.834Z,1005.89
2023-03-15T04:28:55.850Z,1005.90
2023-03-15T04:29:55.844Z,1005.91
2023-03-15T04:30:55.890Z,1005.92
2023-03-15T04:31:55.827Z,1005.97
2023-03-15T04:32:55.856Z,1005.95
2023-03-15T04:33:55.821Z,1005.95
2023-03-15T04:34:55.840Z,1006.00
2023-03-15T04:35:55.902Z,1006.00
2023-03-15T04:36:55.841Z,1006.00
2023-03-15T04:37:55.803Z,1006.03
2023-03-15T04:38:55.805Z,1006.04
2023-03-15T04:39:55.823Z,1006.05
2023-03-15T04:40:55.795Z,1006.09
2023-03-15T04:41:55.790Z,1006.10
2023-03-15T04:42:55.777Z,1006.13
2023-03-15T04:43:55.786Z,1006.15
2023-03-15T04:44:55.831Z,1006.13
2023-03-15T04:45:55.775Z,1006.13
2023-03-15T04:46:55.866Z,1006.17
2023-03-15T04:47:55.763Z,1006.19
2023-03-15T04:48:55.770Z,1006.21
2023-03-15T04:49:55.759Z,1006.23
2023-03-15T04:50:55.751Z,1006.22
2023-03-15T04:51:55.739Z,1006.25
2023-03-15T04:52:55.739Z,1006.20
2023-03-15T04:53:55.746Z,1006.25
2023-03-15T04:54:55.749Z,1006.28
2023-03-15T04:55:55.722Z,1006.26
2023-03-15T04:56:55.769Z,1006.22
2023-03-15T04:57:55.743Z,1006.27
2023-03-15T04:58:55.702Z,1006.27
2023-03-15T04:59:55.706Z,1006.27
2023-03-15T05:00:55.759Z,1006.30
2023-03-15T05:01:55.718Z,1006.34
2023-03-15T05:02:55.717Z,1006.36
2023-03-15T05:03:55.717Z,1006.34
2023-03-15T05:04:55.713Z,1006.37
2023-03-15T05:05:55.726Z,1006.39
2023-03-15T05:06:55.686Z,1006.42
2023-03-15T05:07:55.662Z,1006.43
2023-03-15T05:08:55.664Z,1006.45
2023-03-15T05:09:55.655Z,1006.47
2023-03-15T05:10:55.654Z,1006.47
2023-03-15T05:11:55.858Z,1006.46
2023-03-15T05:12:55.647Z,1006.50
2023-03-15T05:13:55.649Z,1006.52
2023-03-15T05:14:55.662Z,1006.55
2023-03-15T05:15:55.706Z,1006.54
2023-03-15T05:16:55.666Z,1006.59
2023-03-15T05:17:55.628Z,1006.63
2023-03-15T05:18:55.631Z,1006.60
2023-03-15T05:19:55.613Z,1006.64
2023-03-15T05:20:55.624Z,1006.67
2023-03-15T05:21:55.610Z,1006.69
2023-03-15T05:22:55.631Z,1006.69
2023-03-15T05:23:55.611Z,1006.74
2023-03-15T05:24:55.600Z,1006.76
2023-03-15T05:25:55.610Z,1006.75
2023-03-15T05:26:55.588Z,1006.78
2023-03-15T05:27:55.577Z,1006.80
2023-03-15T05:28:55.645Z,1006.81
2023-03-15T05:29:55.576Z,1006.79
2023-03-15T05:30:55.590Z,1006.85
2023-03-15T05:31:55.662Z,1006.85
2023-03-15T05:32:55.667Z,1006.87
2023-03-15T05:33:55.561Z,1006.85
2023-03-15T05:34:55.564Z,1006.84
2023-03-15T05:35:55.612Z,1006.87
2023-03-15T05:36:55.542Z,1006.91
2023-03-15T05:37:55.555Z,1006.92
2023-03-15T05:38:55.529Z,1006.98
2023-03-15T05:39:55.544Z,1006.97
2023-03-15T05:40:55.539Z,1007.01
2023-03-15T05:41:55.555Z,1007.05
2023-03-15T05:42:55.563Z,1007.05
2023-03-15T05:43:55.521Z,1007.10
2023-03-15T05:44:55.501Z,1007.09
2023-03-15T05:45:55.513Z,1007.08
2023-03-15T05:46:55.489Z,1007.14
2023-03-15T05:47:55.514Z,1007.17
2023-03-15T05:48:55.494Z,1007.17
2023-03-15T05:49:55.483Z,1007.17
2023-03-15T05:50:55.527Z,1007.18
2023-03-15T05:51:55.468Z,1007.17
2023-03-15T05:52:55.524Z,1007.20
2023-03-15T05:53:55.461Z,1007.23
2023-03-15T05:54:55.561Z,1007.23
2023-03-15T05:55:55.450Z,1007.23
2023-03-15T05:56:55.452Z,1007.28
2023-03-15T05:57:55.448Z,1007.31
2023-03-15T05:58:55.478Z,1007.34
2023-03-15T05:59:55.437Z,1007.35
2023-03-15T06:00:55.454Z,1007.36
2023-03-15T06:01:55.426Z,1007.39
2023-03-15T06:02:55.475Z,1007.37
2023-03-15T06:03:55.480Z,1007.40
2023-03-15T06:04:55.417Z,1007.39
2023-03-15T06:05:55.406Z,1007.44
2023-03-15T06:06:55.419Z,1007.45
2023-03-15T06:07:55.414Z,1007.47
2023-03-15T06:08:55.425Z,1007.48
2023-03-15T06:09:55.418Z,1007.49
2023-03-15T06:10:55.421Z,1007.47
2023-03-15T06:11:55.402Z,1007.54
2023-03-15T06:12:55.405Z,1007.59
2023-03-15T06:13:55.396Z,1007.59
2023-03-15T06:14:55.370Z,1007.60
2023-03-15T06:15:55.366Z,1007.61
2023-03-15T06:16:55.496Z,1007.62
2023-03-15T06:17:55.378Z,1007.63
2023-03-15T06:18:55.353Z,1007.65
2023-03-15T06:19:55.353Z,1007.70
2023-03-15T06:20:55.352Z,1007.68
2023-03-15T06:21:55.345Z,1007.72
2023-03-15T06:22:55.361Z,1007.72
2023-03-15T06:23:55.368Z,1007.76
2023-03-15T06:24:55.417Z,1007.76
2023-03-15T06:25:55.329Z,1007.82
2023-03-15T06:26:55.325Z,1007.84
2023-03-15T06:27:55.341Z,1007.82
2023-03-15T06:28:55.419Z,1007.87
2023-03-15T06:29:55.297Z,1007.90
2023-03-15T06:30:55.350Z,1007.98
2023-03-15T06:31:55.288Z,1007.97
2023-03-15T06:32:55.377Z,1008.01
2023-03-15T06:33:55.288Z,1008.02
2023-03-15T06:34:55.278Z,1008.02
2023-03-15T06:35:55.290Z,1008.05
2023-03-15T06:36:55.281Z,1008.04
2023-03-15T06:37:55.305Z,1008.10
2023-03-15T06:38:55.308Z,1008.08
2023-03-15T06:39:55.279Z,1008.13
2023-03-15T06:40:55.285Z,1008.07
2023-03-15T06:41:55.250Z,1008.10
2023-03-15T06:42:55.244Z,1008.13
2023-03-15T06:43:55.255Z,1008.10
2023-03-15T06:44:55.253Z,1008.14
2023-03-15T06:45:55.518Z,1008.22
2023-03-15T06:48:28.279Z,1008.24
2023-03-15T06:49:28.250Z,1008.26
2023-03-15T06:50:34.438Z,1008.30
2023-03-15T06:51:28.277Z,1008.31
2023-03-15T06:52:28.265Z,1008.32
2023-03-15T06:53:28.271Z,1008.33
2023-03-15T06:54:28.254Z,1008.30
2023-03-15T06:55:28.281Z,1008.35
2023-03-15T06:56:28.261Z,1008.36
2023-03-15T06:57:30.050Z,1008.38
2023-03-15T06:58:28.269Z,1008.40
2023-03-15T06:59:28.297Z,1008.38
2023-03-15T07:00:28.242Z,1008.36
2023-03-15T07:01:28.334Z,1008.39
2023-03-15T07:02:28.297Z,1008.39
2023-03-15T07:03:28.230Z,1008.37
2023-03-15T07:04:28.219Z,1008.40
2023-03-15T07:05:28.228Z,1008.41
2023-03-15T07:06:28.237Z,1008.43
2023-03-15T07:08:28.274Z,1008.47
2023-03-15T07:09:28.182Z,1008.51
2023-03-15T07:10:28.221Z,1008.50
2023-03-15T07:11:28.194Z,1008.50
2023-03-15T07:12:28.186Z,1008.48
2023-03-15T07:13:28.202Z,1008.52
2023-03-15T07:14:28.157Z,1008.56
2023-03-15T07:15:28.208Z,1008.62
2023-03-15T07:16:28.181Z,1008.59
2023-03-15T07:17:28.145Z,1008.60
2023-03-15T07:18:28.151Z,1008.67
2023-03-15T07:19:28.148Z,1008.69
2023-03-15T07:20:28.149Z,1008.75
2023-03-15T07:21:28.145Z,1008.75
2023-03-15T07:22:28.167Z,1008.75
2023-03-15T07:23:28.126Z,1008.75
2023-03-15T07:24:28.125Z,1008.73
2023-03-15T07:25:28.128Z,1008.78
2023-03-15T07:26:28.131Z,1008.81
2023-03-15T07:27:28.138Z,1008.78
2023-03-15T07:28:28.187Z,1008.81
2023-03-15T07:29:28.109Z,1008.83
2023-03-15T07:30:28.156Z,1008.84
2023-03-15T07:31:28.189Z,1008.85
2023-03-15T07:32:28.323Z,1008.83
2023-03-15T07:33:28.162Z,1008.87
2023-03-15T07:34:28.092Z,1008.89
2023-03-15T07:35:28.124Z,1008.86
2023-03-15T07:36:28.096Z,1008.85
2023-03-15T07:37:28.091Z,1008.90
2023-03-15T07:38:28.074Z,1008.87
2023-03-15T07:39:28.079Z,1008.93
2023-03-15T07:40:28.095Z,1008.95
2023-03-15T07:41:28.071Z,1008.98
2023-03-15T07:42:28.090Z,1009.00
2023-03-15T07:43:28.139Z,1009.00
2023-03-15T07:44:28.081Z,1008.98
2023-03-15T07:45:28.086Z,1009.02
2023-03-15T07:46:28.085Z,1009.01
2023-03-15T07:47:28.069Z,1009.09
2023-03-15T07:48:28.044Z,1009.14
2023-03-15T07:49:28.037Z,1009.17
2023-03-15T07:50:28.096Z,1009.15
2023-03-15T07:51:28.058Z,1009.21
2023-03-15T07:52:28.133Z,1009.21
2023-03-15T07:53:28.048Z,1009.21
2023-03-15T07:54:28.869Z,1009.24
2023-03-15T07:55:28.074Z,1009.24
2023-03-15T07:56:28.016Z,1009.25
2023-03-15T07:57:29.017Z,1009.26
2023-03-15T07:58:28.031Z,1009.28
2023-03-15T07:59:28.040Z,1009.35
2023-03-15T08:00:28.045Z,1009.33
2023-03-15T08:01:28.015Z,1009.36
2023-03-15T08:02:30.197Z,1009.37
2023-03-15T08:03:28.070Z,1009.36
2023-03-15T08:04:28.005Z,1009.42
2023-03-15T08:05:29.190Z,1009.44
2023-03-15T08:06:28.121Z,1009.44
2023-03-15T08:07:27.985Z,1009.45
2023-03-15T08:08:27.990Z,1009.50
2023-03-15T08:09:28.000Z,1009.49
2023-03-15T08:10:28.004Z,1009.52
2023-03-15T08:11:28.012Z,1009.53
2023-03-15T08:13:27.976Z,1009.59
2023-03-15T08:14:27.997Z,1009.53
2023-03-15T08:15:28.000Z,1009.58
2023-03-15T08:16:28.061Z,1009.56
2023-03-15T08:17:27.971Z,1009.61
2023-03-15T08:18:27.972Z,1009.59
2023-03-15T08:19:27.966Z,1009.62
2023-03-15T08:20:29.814Z,1009.61
2023-03-15T08:21:27.974Z,1009.64
2023-03-15T08:22:27.995Z,1009.63
2023-03-15T08:23:27.957Z,1009.64
2023-03-15T08:24:27.953Z,1009.65
2023-03-15T08:25:27.949Z,1009.71
2023-03-15T08:26:27.983Z,1009.69
2023-03-15T08:28:27.970Z,1009.75
2023-03-15T08:29:27.948Z,1009.73
2023-03-15T08:30:28.099Z,1009.76
2023-03-15T08:31:28.062Z,1009.79
2023-03-15T08:32:27.982Z,1009.81
2023-03-15T08:33:27.953Z,1009.87
2023-03-15T08:34:27.937Z,1009.88
2023-03-15T08:35:28.015Z,1009.91
2023-03-15T08:36:28.499Z,1009.88
2023-03-15T08:37:28.984Z,1009.95
2023-03-15T08:38:28.033Z,1009.94
2023-03-15T08:39:28.035Z,1009.98
2023-03-15T08:40:28.385Z,1010.01
2023-03-15T08:41:28.082Z,1010.02
2023-03-15T08:42:27.963Z,1010.05
2023-03-15T08:43:27.940Z,1010.06
2023-03-15T08:44:28.200Z,1010.09
2023-03-15T08:45:27.948Z,1010.12
2023-03-15T08:46:28.085Z,1010.12
2023-03-15T08:47:27.967Z,1010.21
2023-03-15T08:48:27.908Z,1010.21
2023-03-15T08:49:27.907Z,1010.19
2023-03-15T08:50:27.957Z,1010.26
2023-03-15T08:51:27.926Z,1010.24
2023-03-15T08:52:27.933Z,1010.26
2023-03-15T08:53:27.923Z,1010.25
2023-03-15T08:54:28.506Z,1010.25
2023-03-15T08:55:27.888Z,1010.27
2023-03-15T08:56:27.893Z,1010.27
2023-03-15T08:57:27.921Z,1010.27
2023-03-15T08:58:27.902Z,1010.27
2023-03-15T08:59:32.318Z,1010.28
2023-03-15T09:00:27.935Z,1010.29
2023-03-15T09:01:27.890Z,1010.28
2023-03-15T09:02:27.976Z,1010.31
2023-03-15T09:03:27.884Z,1010.30
2023-03-15T09:04:28.010Z,1010.30
2023-03-15T09:05:27.903Z,1010.28
2023-03-15T09:06:27.894Z,1010.31
2023-03-15T09:07:27.867Z,1010.32
2023-03-15T09:08:27.868Z,1010.33
2023-03-15T09:09:27.872Z,1010.31
2023-03-15T09:10:27.895Z,1010.28
2023-03-15T09:11:27.962Z,1010.32
2023-03-15T09:12:27.866Z,1010.22
2023-03-15T09:13:27.865Z,1010.35
2023-03-15T09:14:27.882Z,1010.30
2023-03-15T09:15:27.872Z,1010.37
2023-03-15T09:16:28.117Z,1010.36
2023-03-15T09:17:27.892Z,1010.37
2023-03-15T09:18:27.897Z,1010.40
2023-03-15T09:19:27.891Z,1010.40
2023-03-15T09:20:27.847Z,1010.44
2023-03-15T09:21:27.855Z,1010.40
2023-03-15T09:22:38.974Z,1010.46
2023-03-15T09:23:27.867Z,1010.43
2023-03-15T09:24:27.879Z,1010.44
2023-03-15T09:25:27.851Z,1010.47
2023-03-15T09:26:27.862Z,1010.52
2023-03-15T09:27:27.920Z,1010.53
2023-03-15T09:28:27.866Z,1010.52
2023-03-15T09:30:27.864Z,1010.56
2023-03-15T09:31:27.974Z,1010.53
2023-03-15T09:32:27.925Z,1010.53
2023-03-15T09:33:27.835Z,1010.53
2023-03-15T09:34:33.286Z,1010.56
2023-03-15T09:35:27.906Z,1010.54
2023-03-15T09:36:27.853Z,1010.55
2023-03-15T09:37:27.860Z,1010.51
2023-03-15T09:38:27.841Z,1010.60
2023-03-15T09:39:27.848Z,1010.56
2023-03-15T09:41:27.846Z,1010.55
2023-03-15T09:42:27.860Z,1010.58
2023-03-15T09:43:27.845Z,1010.54
2023-03-15T09:44:27.857Z,1010.52
2023-03-15T09:45:27.841Z,1010.56
2023-03-15T09:46:28.091Z,1010.59
2023-03-15T09:47:27.830Z,1010.59
2023-03-15T09:48:27.952Z,1010.58
2023-03-15T09:51:00.925Z,1010.57
2023-03-15T09:52:00.853Z,1010.55
2023-03-15T09:53:00.868Z,1010.56
2023-03-15T09:55:00.851Z,1010.61
2023-03-15T09:56:00.867Z,1010.62
2023-03-15T09:57:00.855Z,1010.62
2023-03-15T09:58:00.868Z,1010.61
2023-03-15T09:59:00.873Z,1010.62
2023-03-15T10:00:00.846Z,1010.63
2023-03-15T10:01:00.860Z,1010.64
2023-03-15T10:02:00.877Z,1010.63
2023-03-15T10:13:20.328Z,1010.67
2023-03-15T10:14:20.296Z,1010.66
2023-03-15T10:15:20.281Z,1010.69
2023-03-15T10:16:20.320Z,1010.70
2023-03-15T10:17:20.248Z,1010.71
2023-03-15T10:18:20.269Z,1010.71
2023-03-15T10:19:20.255Z,1010.69
2023-03-15T10:20:20.259Z,1010.70
2023-03-15T10:22:20.272Z,1010.67
2023-03-15T10:23:20.335Z,1010.70
2023-03-15T10:24:20.239Z,1010.69
2023-03-15T10:25:20.261Z,1010.73
2023-03-15T10:26:20.357Z,1010.68
2023-03-15T10:27:20.281Z,1010.63
2023-03-15T10:28:21.533Z,1010.66
2023-03-15T10:29:20.530Z,1010.65
2023-03-15T10:30:20.492Z,1010.65
2023-03-15T10:31:22.906Z,1010.67
2023-03-15T10:32:20.293Z,1010.68
2023-03-15T10:33:20.318Z,1010.65
2023-03-15T10:34:20.324Z,1010.70
2023-03-15T10:35:20.261Z,1010.74
2023-03-15T10:36:20.340Z,1010.76
2023-03-15T10:37:20.256Z,1010.77
2023-03-15T10:38:20.254Z,1010.77
2023-03-15T10:39:20.234Z,1010.77
2023-03-15T10:40:20.283Z,1010.78
2023-03-15T10:41:28.490Z,1010.72
2023-03-15T10:42:20.280Z,1010.70
2023-03-15T10:43:20.251Z,1010.74
2023-03-15T10:44:20.261Z,1010.71
2023-03-15T10:45:20.301Z,1010.75
2023-03-15T10:46:20.414Z,1010.79
2023-03-15T10:47:24.167Z,1010.79
2023-03-15T10:48:20.411Z,1010.80
2023-03-15T10:49:20.253Z,1010.82
2023-03-15T10:50:20.290Z,1010.85
2023-03-15T10:51:22.364Z,1010.82
2023-03-15T10:52:20.277Z,1010.88
2023-03-15T10:53:20.248Z,1010.90
2023-03-15T10:54:20.275Z,1010.90
2023-03-15T10:55:20.248Z,1010.91
2023-03-15T10:56:20.243Z,1010.90
2023-03-15T10:57:20.269Z,1010.94
2023-03-15T10:58:20.273Z,1010.91
2023-03-15T10:59:20.258Z,1010.92
2023-03-15T11:00:20.373Z,1010.94
2023-03-15T11:01:20.327Z,1010.94
2023-03-15T11:02:20.357Z,1010.90
2023-03-15T11:03:20.279Z,1010.99
2023-03-15T11:04:20.246Z,1011.05
2023-03-15T11:05:20.260Z,1011.11
2023-03-15T11:06:20.262Z,1011.05
2023-03-15T11:07:20.276Z,1011.07
2023-03-15T11:08:20.262Z,1011.09
2023-03-15T11:09:20.272Z,1011.06
2023-03-15T11:10:20.276Z,1011.12
2023-03-15T11:11:20.321Z,1011.09
2023-03-15T11:12:20.262Z,1011.17
2023-03-15T11:13:20.268Z,1011.15
2023-03-15T11:14:20.267Z,1011.16
2023-03-15T11:15:20.288Z,1011.17
2023-03-15T11:16:20.312Z,1011.16
2023-03-15T11:17:20.307Z,1011.18
2023-03-15T11:18:20.294Z,1011.18
2023-03-15T11:19:20.275Z,1011.19
2023-03-15T11:20:20.302Z,1011.19
2023-03-15T11:21:20.293Z,1011.18
2023-03-15T11:22:20.269Z,1011.25
2023-03-15T11:23:20.270Z,1011.25
2023-03-15T11:24:20.319Z,1011.26
2023-03-15T11:25:20.309Z,1011.29
2023-03-15T11:26:31.514Z,1011.23
2023-03-15T11:27:20.322Z,1011.23
2023-03-15T11:28:20.378Z,1011.33
2023-03-15T11:29:20.270Z,1011.32
2023-03-15T11:30:20.305Z,1011.31
2023-03-15T11:31:20.331Z,1011.29
2023-03-15T11:32:20.287Z,1011.35
2023-03-15T11:33:20.303Z,1011.37
2023-03-15T11:34:20.289Z,1011.43
2023-03-15T11:35:20.329Z,1011.43
2023-03-15T11:36:20.314Z,1011.43
2023-03-15T11:37:20.319Z,1011.41
2023-03-15T11:38:20.285Z,1011.48
2023-03-15T11:39:20.299Z,1011.51
2023-03-15T11:40:20.286Z,1011.47
2023-03-15T11:41:20.288Z,1011.51
2023-03-15T11:42:20.320Z,1011.59
2023-03-15T11:43:20.288Z,1011.60
2023-03-15T11:44:20.342Z,1011.59
2023-03-15T11:45:20.298Z,1011.58
2023-03-15T11:46:20.290Z,1011.57
2023-03-15T11:47:20.309Z,1011.53
2023-03-15T11:48:20.295Z,1011.58
2023-03-15T11:49:20.298Z,1011.58
2023-03-15T11:50:20.300Z,1011.58
2023-03-15T11:51:20.295Z,1011.55
2023-03-15T11:52:20.299Z,1011.56
2023-03-15T11:53:20.297Z,1011.53
2023-03-15T11:55:20.303Z,1011.52
2023-03-15T11:56:20.309Z,1011.46
2023-03-15T11:57:20.280Z,1011.49
2023-03-15T11:58:20.289Z,1011.48
2023-03-15T11:59:20.303Z,1011.49
2023-03-15T12:00:20.371Z,1011.51
2023-03-15T12:01:20.286Z,1011.48
2023-03-15T12:02:20.367Z,1011.59
2023-03-15T12:03:20.353Z,1011.58
2023-03-15T12:04:20.284Z,1011.61
2023-03-15T12:05:20.308Z,1011.51
2023-03-15T12:06:20.276Z,1011.61
2023-03-15T12:07:20.433Z,1011.60
2023-03-15T12:08:20.302Z,1011.58
2023-03-15T12:09:20.276Z,1011.58
2023-03-15T12:10:20.368Z,1011.60
2023-03-15T12:11:20.282Z,1011.64
2023-03-15T12:12:20.329Z,1011.62
2023-03-15T12:13:20.285Z,1011.61
2023-03-15T12:14:20.287Z,1011.67
2023-03-15T12:15:20.477Z,1011.65
2023-03-15T12:16:20.427Z,1011.61
2023-03-15T12:17:21.366Z,1011.61
2023-03-15T12:18:20.360Z,1011.61
2023-03-15T12:19:20.302Z,1011.62
2023-03-15T12:20:20.313Z,1011.55
2023-03-15T12:21:20.302Z,1011.56
2023-03-15T12:22:20.303Z,1011.58
2023-03-15T12:23:20.327Z,1011.61
2023-03-15T12:24:20.304Z,1011.55
2023-03-15T12:25:20.282Z,1011.54
2023-03-15T12:26:20.301Z,1011.57
2023-03-15T12:27:20.277Z,1011.59
2023-03-15T12:28:20.287Z,1011.54
2023-03-15T12:29:20.339Z,1011.56
2023-03-15T12:30:20.291Z,1011.57
2023-03-15T12:31:20.443Z,1011.52
2023-03-15T12:32:20.281Z,1011.51
2023-03-15T12:33:20.325Z,1011.55
2023-03-15T12:34:20.295Z,1011.62
2023-03-15T12:35:20.289Z,1011.63
2023-03-15T12:36:20.292Z,1011.63
2023-03-15T12:37:20.329Z,1011.66
2023-03-15T12:38:20.297Z,1011.70
2023-03-15T12:39:20.351Z,1011.75
2023-03-15T12:40:20.313Z,1011.75
2023-03-15T12:41:20.345Z,1011.79
2023-03-15T12:42:20.309Z,1011.82
2023-03-15T12:43:20.324Z,1011.84
2023-03-15T12:44:20.330Z,1011.85
2023-03-15T12:45:20.330Z,1011.86
2023-03-15T12:46:20.415Z,1011.85
2023-03-15T12:47:20.382Z,1011.82
2023-03-15T12:48:20.319Z,1011.85
2023-03-15T12:49:20.311Z,1011.89
2023-03-15T12:50:20.330Z,1011.85
2023-03-15T12:51:20.357Z,1011.90
2023-03-15T12:52:20.327Z,1011.91
2023-03-15T12:53:20.340Z,1011.93
2023-03-15T12:54:20.378Z,1011.99
2023-03-15T12:55:20.353Z,1011.96
2023-03-15T12:56:20.337Z,1011.90
2023-03-15T12:57:20.328Z,1011.89
2023-03-15T12:58:20.376Z,1011.80
2023-03-15T12:59:20.340Z,1011.85
2023-03-15T13:00:20.360Z,1011.89
2023-03-15T13:01:20.360Z,1011.90
2023-03-15T13:02:23.050Z,1011.90
2023-03-15T13:03:20.385Z,1011.88
2023-03-15T13:04:20.351Z,1011.93
2023-03-15T13:05:20.358Z,1011.94
2023-03-15T13:06:20.349Z,1011.96
2023-03-15T13:07:20.364Z,1011.96
2023-03-15T13:08:20.380Z,1011.99
2023-03-15T13:09:20.392Z,1012.00
2023-03-15T13:12:53.473Z,1012.07
2023-03-15T13:13:53.466Z,1012.05
2023-03-15T13:14:53.490Z,1012.03
2023-03-15T13:15:53.508Z,1012.09
2023-03-15T13:16:53.459Z,1012.10
2023-03-15T13:17:53.471Z,1012.12
2023-03-15T13:18:53.474Z,1012.11
2023-03-15T13:19:53.505Z,1012.10
2023-03-15T13:20:53.486Z,1012.12
2023-03-15T13:21:53.490Z,1012.10
2023-03-15T13:22:55.775Z,1012.08
2023-03-15T13:23:53.504Z,1012.06
2023-03-15T13:24:53.536Z,1012.09
2023-03-15T13:25:53.489Z,1012.04
2023-03-15T13:26:53.493Z,1012.02
2023-03-15T13:27:53.498Z,1012.04
2023-03-15T13:28:53.495Z,1012.06
2023-03-15T13:29:53.600Z,1012.04
2023-03-15T13:30:53.696Z,1012.00
2023-03-15T13:31:53.495Z,1012.03
2023-03-15T13:32:53.607Z,1012.05
2023-03-15T13:33:53.522Z,1012.04
2023-03-15T13:34:53.511Z,1012.09
2023-03-15T13:35:54.214Z,1012.10
2023-03-15T13:36:53.545Z,1012.13
2023-03-15T13:37:53.525Z,1012.10
2023-03-15T13:38:53.529Z,1012.13
2023-03-15T13:39:53.538Z,1012.10
2023-03-15T13:40:53.554Z,1012.06
2023-03-15T13:41:53.539Z,1012.11
2023-03-15T13:42:53.531Z,1012.11
2023-03-15T13:43:53.532Z,1012.12
2023-03-15T13:44:53.556Z,1012.13
2023-03-15T13:45:53.554Z,1012.13
2023-03-15T13:46:53.588Z,1012.16
2023-03-15T13:47:53.560Z,1012.15
2023-03-15T13:48:53.560Z,1012.17
2023-03-15T13:49:53.574Z,1012.14
2023-03-15T13:50:53.556Z,1012.19
2023-03-15T13:51:53.596Z,1012.20
2023-03-15T13:52:53.563Z,1012.21
2023-03-15T13:53:53.578Z,1012.22
2023-03-15T13:54:53.569Z,1012.24
2023-03-15T13:55:53.578Z,1012.23
2023-03-15T13:56:53.620Z,1012.26
2023-03-15T13:57:53.577Z,1012.22
2023-03-15T13:58:53.587Z,1012.24
2023-03-15T13:59:53.604Z,1012.27
2023-03-15T14:00:53.584Z,1012.25
2023-03-15T14:01:53.806Z,1012.20
2023-03-15T14:02:53.709Z,1012.24
2023-03-15T14:03:53.617Z,1012.30
2023-03-15T14:04:53.609Z,1012.30
2023-03-15T14:05:53.586Z,1012.32
2023-03-15T14:06:53.645Z,1012.31
2023-03-15T14:07:53.590Z,1012.28
2023-03-15T14:08:53.598Z,1012.29
2023-03-15T14:09:55.285Z,1012.32
2023-03-15T14:10:53.609Z,1012.25
2023-03-15T14:11:53.626Z,1012.26
2023-03-15T14:12:53.636Z,1012.23
2023-03-15T14:13:53.616Z,1012.23
2023-03-15T14:14:53.645Z,1012.17
2023-03-15T14:15:53.700Z,1012.16
2023-03-15T14:17:04.953Z,1012.11
2023-03-15T14:17:53.637Z,1012.13
2023-03-15T14:18:53.630Z,1012.14
2023-03-15T14:19:53.683Z,1012.16
2023-03-15T14:20:53.640Z,1012.16
2023-03-15T14:21:53.659Z,1012.19
2023-03-15T14:22:53.652Z,1012.17
2023-03-15T14:23:53.650Z,1012.22
2023-03-15T14:24:53.666Z,1012.24
2023-03-15T14:25:53.662Z,1012.26
2023-03-15T14:26:53.719Z,1012.26
2023-03-15T14:27:53.672Z,1012.24
2023-03-15T14:28:53.685Z,1012.23
2023-03-15T14:29:53.681Z,1012.26
2023-03-15T14:30:53.689Z,1012.21
2023-03-15T14:31:53.706Z,1012.24
2023-03-15T14:32:53.806Z,1012.22
2023-03-15T14:33:53.728Z,1012.22
2023-03-15T14:34:53.708Z,1012.25
2023-03-15T14:35:54.353Z,1012.26
2023-03-15T14:36:53.720Z,1012.23
2023-03-15T14:37:53.725Z,1012.24
2023-03-15T14:38:53.737Z,1012.25
2023-03-15T14:39:53.728Z,1012.22
2023-03-15T14:40:53.747Z,1012.27
2023-03-15T14:41:53.750Z,1012.26
2023-03-15T14:42:53.820Z,1012.25
2023-03-15T14:43:53.794Z,1012.26
2023-03-15T14:44:53.798Z,1012.24
2023-03-15T14:45:53.815Z,1012.24
2023-03-15T14:46:53.766Z,1012.21
2023-03-15T14:47:57.113Z,1012.21
2023-03-15T14:48:53.770Z,1012.24
2023-03-15T14:49:53.778Z,1012.24
2023-03-15T14:50:53.804Z,1012.25
2023-03-15T14:51:53.782Z,1012.22
2023-03-15T14:52:53.802Z,1012.22
2023-03-15T14:53:53.797Z,1012.24
2023-03-15T14:54:53.818Z,1012.26
2023-03-15T14:55:53.827Z,1012.28
2023-03-15T14:56:53.822Z,1012.29
2023-03-15T14:57:53.852Z,1012.29
2023-03-15T14:58:53.833Z,1012.31
2023-03-15T14:59:53.845Z,1012.33
2023-03-15T15:00:54.031Z,1012.30
2023-03-15T15:01:53.899Z,1012.35
2023-03-15T15:02:53.848Z,1012.30
2023-03-15T15:03:53.853Z,1012.29
2023-03-15T15:05:14.875Z,1012.36
2023-03-15T15:05:53.888Z,1012.35
2023-03-15T15:06:53.891Z,1012.39
2023-03-15T15:07:53.883Z,1012.39
2023-03-15T15:08:53.893Z,1012.40
2023-03-15T15:09:53.903Z,1012.40
2023-03-15T15:10:53.925Z,1012.37
2023-03-15T15:11:53.908Z,1012.33
2023-03-15T15:13:05.608Z,1012.39
2023-03-15T15:13:53.939Z,1012.37
2023-03-15T15:14:53.996Z,1012.39
2023-03-15T15:15:56.379Z,1012.40
2023-03-15T15:16:54.075Z,1012.40
2023-03-15T15:17:53.951Z,1012.41
2023-03-15T15:18:53.934Z,1012.45
2023-03-15T15:19:53.927Z,1012.45
2023-03-15T15:20:53.930Z,1012.45
2023-03-15T15:21:53.951Z,1012.41
2023-03-15T15:22:53.940Z,1012.41
2023-03-15T15:24:00.500Z,1012.43
2023-03-15T15:24:53.952Z,1012.47
2023-03-15T15:25:54.063Z,1012.44
2023-03-15T15:26:53.956Z,1012.47
2023-03-15T15:27:53.950Z,1012.46
2023-03-15T15:28:53.962Z,1012.44
2023-03-15T15:29:53.982Z,1012.46
2023-03-15T15:30:53.986Z,1012.43
2023-03-15T15:31:54.018Z,1012.44
2023-03-15T15:32:54.060Z,1012.40
2023-03-15T15:33:53.990Z,1012.44
2023-03-15T15:34:53.998Z,1012.41
2023-03-15T15:35:54.047Z,1012.43
2023-03-15T15:36:53.989Z,1012.42
2023-03-15T15:37:53.976Z,1012.42
2023-03-15T15:38:53.998Z,1012.39
2023-03-15T15:39:53.986Z,1012.41
2023-03-15T15:40:53.996Z,1012.37
2023-03-15T15:41:54.003Z,1012.38
2023-03-15T15:42:54.006Z,1012.42
2023-03-15T15:43:54.007Z,1012.38
2023-03-15T15:44:53.996Z,1012.40
2023-03-15T15:45:54.030Z,1012.38
2023-03-15T15:46:53.994Z,1012.38
2023-03-15T15:47:53.993Z,1012.40
2023-03-15T15:48:54.052Z,1012.42
2023-03-15T15:49:53.991Z,1012.38
2023-03-15T15:50:54.009Z,1012.38
2023-03-15T15:51:54.011Z,1012.42
2023-03-15T15:52:54.014Z,1012.47
2023-03-15T15:53:53.994Z,1012.50
2023-03-15T15:54:53.995Z,1012.49
2023-03-15T15:55:54.005Z,1012.46
2023-03-15T15:56:53.999Z,1012.43
2023-03-15T15:57:54.024Z,1012.42
2023-03-15T15:58:54.012Z,1012.42
2023-03-15T15:59:54.012Z,1012.45
2023-03-15T16:00:53.999Z,1012.42
2023-03-15T16:12:33.574Z,1012.43
2023-03-15T16:13:33.525Z,1012.44
2023-03-15T16:14:33.532Z,1012.41
2023-03-15T16:15:33.647Z,1012.43
2023-03-15T16:16:33.515Z,1012.43
2023-03-15T16:17:33.524Z,1012.44
2023-03-15T16:18:33.527Z,1012.43
2023-03-15T16:19:33.532Z,1012.40
2023-03-15T16:20:33.517Z,1012.41
2023-03-15T16:21:33.639Z,1012.39
2023-03-15T16:22:33.501Z,1012.38
2023-03-15T16:23:33.516Z,1012.38
2023-03-15T16:24:35.977Z,1012.37
2023-03-15T16:25:33.501Z,1012.38
2023-03-15T16:26:33.507Z,1012.40
2023-03-15T16:27:33.815Z,1012.41
2023-03-15T16:29:33.499Z,1012.40
2023-03-15T16:30:33.483Z,1012.40
2023-03-15T16:31:33.537Z,1012.42
2023-03-15T16:32:43.858Z,1012.45
2023-03-15T16:33:33.491Z,1012.44
2023-03-15T16:34:33.472Z,1012.45
2023-03-15T16:35:33.510Z,1012.49
2023-03-15T16:36:33.470Z,1012.45
2023-03-15T16:37:33.505Z,1012.48
2023-03-15T16:38:33.462Z,1012.48
2023-03-15T16:39:33.460Z,1012.49